ルア の空港の天気 - METARとTAF

マルタ国際空港 ( LMML / MLA ) - マルタ ルア
飛行場実況気象(Metar)
観測時間07/17 10:15 CEST (07/17 08:15 UTC)
風向・風速北 8m/s
視程10km以上
天気現象
なし
気温28℃
湿度42%
気圧1013hPa
METARLMML 170815Z 36015KT CAVOK 28/14 Q1013 NOSIG
過去の天気等 Google飛行場航空写真 Wunderground天気予報

過去48時間のMETAR

飛行場予報(TAF)
発表時間: 7/17 07:00 CEST (7/17 05:00 UTC)
予報対象時間: 17日8時 CEST ~ 18日8時 CEST
風向・風速北北西 6m/s
視程10km以上
少しの雲 雲底高度 610m
17日23時 CEST ~ 18日2時 CEST に徐々に
風向・風速西南西 5m/s
TAF LMML 170500Z 1706/1806 34012KT 9999 FEW020
BECMG 1721/1724 25010KT